Casar, North Carolina
Current Conditions -  °F | °C
As of 3:15 AM on Tuesday 21 Oct 2014 (Local Time) from KEHO Reporting Station
Haze Haze  
Wind Chill: 10°   Ceiling: Unl
Heat Index: 10°   Visibility: 5mi
Dew Point: 10°   Wind: 0mph
Humidity: 99%   Direction: NA
Pressure: 29.96"   Gusts: NA
Location:  35.51°N, 81.62°W
Report Text: KEHO 210715Z AUTO 00000KT 5SM BR CLR 10/10 A2996 RMK AO2 T01000099
Loading
Personal Weather Stations






























Interactive Weather Map
Tropical Storm Tracking
New forecast layout! Learn more

10-Day Weather Forecast

Advertisements
Track Severe Weather on mobile